Time;durP1;ratioP1;P1;durP2;ratioP2;P2;SDS_P1;SDS_P2;PMS_P1;PMS_P2;Temp;Humidity;BMP_temperature;BMP_pressure;BME280_temperature;BME280_humidity;BME280_pressure;Samples;Min_cycle;Max_cycle;Signal;HPM_P1;HPM_P2
2022/05/12 00:01:46;;;;;;;0.30;0.30;;;13.80;97.90;;;;;;5073599;28;20187;-74
2022/05/12 00:04:12;;;;;;;0.30;0.30;;;13.80;98.00;;;;;;5073552;28;20185;-74
2022/05/12 00:06:37;;;;;;;0.30;0.30;;;13.80;98.10;;;;;;5073478;28;20169;-74
2022/05/12 00:09:03;;;;;;;0.30;0.30;;;13.80;98.00;;;;;;5073770;28;20221;-74
2022/05/12 00:11:30;;;;;;;0.30;0.30;;;13.80;98.10;;;;;;5073390;28;20168;-74
2022/05/12 00:13:56;;;;;;;0.40;0.40;;;13.80;97.90;;;;;;5073469;28;20457;-74
2022/05/12 00:16:22;;;;;;;0.30;0.30;;;13.70;97.90;;;;;;5073727;28;20426;-74
2022/05/12 00:18:48;;;;;;;0.43;0.43;;;13.70;97.90;;;;;;5073659;28;20415;-74
2022/05/12 00:21:14;;;;;;;0.30;0.30;;;13.70;97.90;;;;;;5073311;28;20885;-74
2022/05/12 00:23:40;;;;;;;0.30;0.30;;;13.70;97.80;;;;;;5073235;28;20446;-74
2022/05/12 00:26:05;;;;;;;0.30;0.30;;;13.80;97.90;;;;;;5073552;28;20419;-74
2022/05/12 00:28:31;;;;;;;0.30;0.30;;;13.80;98.10;;;;;;5073481;28;20311;-74
2022/05/12 00:30:57;;;;;;;0.30;0.30;;;13.90;97.80;;;;;;5073374;28;20214;-74
2022/05/12 00:33:27;;;;;;;0.50;0.50;;;13.90;98.10;;;;;;5073473;28;20181;-74
2022/05/12 00:35:54;;;;;;;0.50;0.50;;;13.80;97.90;;;;;;5073347;28;20402;-74
2022/05/12 00:38:20;;;;;;;0.30;0.30;;;13.80;98.00;;;;;;5073383;28;20427;-74
2022/05/12 00:40:47;;;;;;;0.30;0.30;;;13.80;98.00;;;;;;5073304;28;20419;-74
2022/05/12 00:43:55;;;;;;;0.30;0.30;;;13.80;97.70;;;;;;5073383;28;20200;-74
2022/05/12 00:46:31;;;;;;;0.30;0.30;;;13.70;97.10;;;;;;5072771;28;20439;-74
2022/05/12 00:49:00;;;;;;;0.30;0.30;;;13.80;96.80;;;;;;5073305;28;20457;-74
2022/05/12 00:51:39;;;;;;;0.30;0.30;;;13.80;97.20;;;;;;5073127;28;20400;-74
2022/05/12 00:54:17;;;;;;;0.40;0.40;;;13.90;97.00;;;;;;5073299;28;20441;-74
2022/05/12 00:56:44;;;;;;;0.40;0.40;;;13.80;97.00;;;;;;5073229;28;20484;-74
2022/05/12 00:59:16;;;;;;;0.30;0.30;;;13.90;96.60;;;;;;5073226;28;20399;-74
2022/05/12 01:01:41;;;;;;;0.30;0.30;;;14.00;95.20;;;;;;5073206;28;20404;-74
2022/05/12 01:04:07;;;;;;;0.30;0.30;;;14.00;94.20;;;;;;5073039;28;20515;-74
2022/05/12 01:06:33;;;;;;;0.30;0.30;;;14.10;95.10;;;;;;5073165;28;20201;-74
2022/05/12 01:08:59;;;;;;;0.40;0.40;;;14.10;94.90;;;;;;5072937;28;20192;-74
2022/05/12 01:11:25;;;;;;;0.30;0.30;;;14.10;93.60;;;;;;5072850;28;20450;-74
2022/05/12 01:14:00;;;;;;;0.40;0.40;;;14.20;92.40;;;;;;5072998;28;20507;-74
2022/05/12 01:16:48;;;;;;;0.40;0.40;;;14.30;92.80;;;;;;5073120;28;20756;-74
2022/05/12 01:19:22;;;;;;;0.30;0.30;;;14.40;92.80;;;;;;5076923;28;20399;-75
2022/05/12 01:21:50;;;;;;;0.30;0.30;;;14.40;92.90;;;;;;5076549;28;20805;-74
2022/05/12 01:24:17;;;;;;;0.30;0.30;;;14.50;91.90;;;;;;5076535;28;20439;-74
2022/05/12 01:26:43;;;;;;;0.30;0.30;;;14.50;92.20;;;;;;5076683;28;20503;-74
2022/05/12 01:29:09;;;;;;;0.30;0.30;;;14.60;92.00;;;;;;5076602;28;20529;-75
2022/05/12 01:31:36;;;;;;;1.27;1.17;;;14.60;91.80;;;;;;5075054;28;20174;-74
2022/05/12 01:34:07;;;;;;;1.13;1.13;;;14.50;92.10;;;;;;5076348;28;20426;-74
2022/05/12 01:36:33;;;;;;;0.30;0.30;;;14.50;92.30;;;;;;5076475;28;20400;-74
2022/05/12 01:39:00;;;;;;;0.50;0.50;;;14.60;91.30;;;;;;5076418;28;20432;-74
2022/05/12 01:41:26;;;;;;;0.30;0.30;;;14.60;91.00;;;;;;5076169;28;20415;-74
2022/05/12 01:43:51;;;;;;;0.30;0.30;;;14.70;90.30;;;;;;5076337;28;20424;-75
2022/05/12 01:46:17;;;;;;;0.30;0.30;;;14.70;90.00;;;;;;5076058;28;20468;-74
2022/05/12 01:48:43;;;;;;;0.30;0.30;;;14.70;91.00;;;;;;5076344;28;20254;-74
2022/05/12 01:51:10;;;;;;;0.30;0.30;;;14.80;89.80;;;;;;5075974;28;20161;-74
2022/05/12 01:53:36;;;;;;;0.30;0.30;;;14.70;91.50;;;;;;5076008;28;20431;-74
2022/05/12 01:56:04;;;;;;;0.30;0.30;;;14.70;90.90;;;;;;5076245;28;20403;-74
2022/05/12 01:58:30;;;;;;;0.40;0.40;;;14.70;90.20;;;;;;5076193;28;20434;-74
2022/05/12 02:00:56;;;;;;;0.30;0.30;;;14.70;87.90;;;;;;5074570;28;20423;-74
2022/05/12 02:03:22;;;;;;;0.30;0.30;;;14.90;90.30;;;;;;5075831;28;20221;-74
2022/05/12 02:05:47;;;;;;;0.30;0.30;;;14.90;90.50;;;;;;5075922;28;20182;-74
2022/05/12 02:08:16;;;;;;;0.40;0.40;;;14.80;90.30;;;;;;5075851;28;20442;-74
2022/05/12 02:10:45;;;;;;;0.30;0.30;;;14.80;90.60;;;;;;5075672;28;20453;-74
2022/05/12 02:13:12;;;;;;;0.30;0.30;;;14.90;88.30;;;;;;5075878;28;20429;-74
2022/05/12 02:15:39;;;;;;;0.30;0.30;;;14.90;89.40;;;;;;5074400;28;20409;-74
2022/05/12 02:18:05;;;;;;;0.30;0.30;;;14.90;89.50;;;;;;5075642;28;20752;-74
2022/05/12 02:20:31;;;;;;;0.30;0.30;;;14.90;90.00;;;;;;5075671;28;20515;-74
2022/05/12 02:22:57;;;;;;;0.30;0.30;;;15.00;87.90;;;;;;5075531;28;21001;-74
2022/05/12 02:25:22;;;;;;;0.30;0.30;;;15.00;90.30;;;;;;5074271;28;20220;-74
2022/05/12 02:27:50;;;;;;;0.30;0.30;;;15.00;87.50;;;;;;5075241;28;20165;-74
2022/05/12 02:30:27;;;;;;;0.40;0.40;;;15.10;89.50;;;;;;5075209;28;20165;-74
2022/05/12 02:32:53;;;;;;;0.30;0.30;;;15.10;88.10;;;;;;5075526;28;20416;-74
2022/05/12 02:35:20;;;;;;;0.30;0.30;;;15.20;88.20;;;;;;5075286;28;20897;-74
2022/05/12 02:37:46;;;;;;;2.43;1.53;;;15.10;89.40;;;;;;5075411;28;20832;-74
2022/05/12 02:40:14;;;;;;;0.30;0.30;;;15.10;90.20;;;;;;5075255;28;20486;-74
2022/05/12 02:42:39;;;;;;;0.30;0.30;;;15.00;88.60;;;;;;5075286;28;20200;-74
2022/05/12 02:45:06;;;;;;;0.30;0.30;;;15.00;88.50;;;;;;5075133;28;20392;-74
2022/05/12 02:47:32;;;;;;;0.80;0.80;;;15.10;89.10;;;;;;5075143;28;20266;-74
2022/05/12 02:49:58;;;;;;;0.30;0.30;;;15.10;90.00;;;;;;5075017;28;21032;-74
2022/05/12 02:52:23;;;;;;;0.30;0.30;;;15.10;87.60;;;;;;5074958;28;20255;-74
2022/05/12 02:54:49;;;;;;;0.50;0.50;;;15.10;88.50;;;;;;5074986;28;20172;-74
2022/05/12 02:57:15;;;;;;;0.30;0.30;;;15.20;88.20;;;;;;5075562;28;20537;-74
2022/05/12 02:59:41;;;;;;;0.30;0.30;;;15.20;87.30;;;;;;5075264;28;20718;-74
2022/05/12 03:02:06;;;;;;;0.30;0.30;;;15.20;87.90;;;;;;5074634;28;20219;-74
2022/05/12 03:04:33;;;;;;;0.40;0.40;;;15.30;88.00;;;;;;5073448;28;20260;-74
2022/05/12 03:06:59;;;;;;;0.30;0.30;;;15.30;87.90;;;;;;5074987;28;20171;-74
2022/05/12 03:09:25;;;;;;;0.30;0.30;;;15.30;88.20;;;;;;5074689;28;20454;-74
2022/05/12 03:11:50;;;;;;;0.30;0.30;;;15.30;86.40;;;;;;5074466;28;20430;-74
2022/05/12 03:14:16;;;;;;;0.30;0.30;;;15.30;86.70;;;;;;5074476;28;20435;-74
2022/05/12 03:16:42;;;;;;;0.30;0.30;;;15.30;87.80;;;;;;5074702;28;20174;-74
2022/05/12 03:19:08;;;;;;;0.30;0.30;;;15.30;88.00;;;;;;5074509;28;20166;-74
2022/05/12 03:21:34;;;;;;;0.30;0.30;;;15.20;87.20;;;;;;5074242;28;20401;-74
2022/05/12 03:24:00;;;;;;;0.30;0.30;;;15.20;90.10;;;;;;5074132;28;20508;-74
2022/05/12 03:26:25;;;;;;;0.30;0.30;;;15.20;90.20;;;;;;5074246;28;20178;-74
2022/05/12 03:28:51;;;;;;;0.30;0.30;;;15.10;87.60;;;;;;5074237;28;20682;-74
2022/05/12 03:31:18;;;;;;;0.30;0.30;;;15.10;89.70;;;;;;5072861;28;20180;-74
2022/05/12 03:33:46;;;;;;;0.30;0.30;;;15.10;90.30;;;;;;5074099;28;20481;-75
2022/05/12 03:36:12;;;;;;;0.40;0.40;;;15.00;88.90;;;;;;5074235;28;20407;-75
2022/05/12 03:38:37;;;;;;;0.30;0.30;;;15.10;89.30;;;;;;5074224;28;20404;-74
2022/05/12 03:41:04;;;;;;;0.40;0.40;;;15.00;89.70;;;;;;5073491;28;20174;-74
2022/05/12 03:46:13;;;;;;;0.30;0.30;;;14.90;89.90;;;;;;5074015;28;20469;-74
2022/05/12 03:48:40;;;;;;;0.30;0.30;;;14.90;90.00;;;;;;5073955;28;20500;-74
2022/05/12 03:51:07;;;;;;;0.50;0.40;;;14.90;90.30;;;;;;5073770;28;20175;-74
2022/05/12 03:53:33;;;;;;;0.30;0.30;;;14.90;90.20;;;;;;5073991;28;20952;-74
2022/05/12 03:56:00;;;;;;;0.73;0.73;;;14.90;90.20;;;;;;5073998;28;20769;-74
2022/05/12 03:58:26;;;;;;;0.30;0.30;;;14.90;90.00;;;;;;5073830;28;20408;-74
2022/05/12 04:00:53;;;;;;;0.40;0.40;;;14.90;90.30;;;;;;5073579;28;20477;-74
2022/05/12 04:03:19;;;;;;;0.50;0.50;;;14.90;89.40;;;;;;5073624;28;20458;-74
2022/05/12 04:05:45;;;;;;;0.30;0.30;;;15.00;90.00;;;;;;5073598;28;20840;-75
2022/05/12 04:08:11;;;;;;;0.67;0.67;;;14.90;90.50;;;;;;5073565;28;20856;-74
2022/05/12 04:10:37;;;;;;;0.30;0.30;;;14.90;91.10;;;;;;5073326;28;20445;-74
2022/05/12 04:13:03;;;;;;;0.30;0.30;;;14.90;91.10;;;;;;5073560;28;20838;-74
2022/05/12 04:15:29;;;;;;;0.30;0.30;;;14.90;90.40;;;;;;5073664;28;20400;-74
2022/05/12 04:18:00;;;;;;;0.40;0.40;;;14.90;91.00;;;;;;5073687;28;20955;-74
2022/05/12 04:20:28;;;;;;;0.30;0.30;;;14.90;90.80;;;;;;5073478;28;20165;-74
2022/05/12 04:22:54;;;;;;;0.37;0.37;;;15.00;91.10;;;;;;5072039;28;20459;-74
2022/05/12 04:25:20;;;;;;;0.30;0.30;;;15.00;90.50;;;;;;5073466;28;20461;-74
2022/05/12 04:27:46;;;;;;;0.30;0.30;;;15.10;90.30;;;;;;5073659;28;20401;-72
2022/05/12 04:30:17;;;;;;;0.57;0.57;;;15.20;90.70;;;;;;5071380;28;20465;-74
2022/05/12 04:32:43;;;;;;;0.30;0.30;;;15.20;90.70;;;;;;5072896;28;20427;-74
2022/05/12 04:35:12;;;;;;;0.30;0.30;;;15.30;90.60;;;;;;5073171;28;20895;-73
2022/05/12 04:37:40;;;;;;;0.30;0.30;;;15.40;88.40;;;;;;5069889;28;20172;-75
2022/05/12 04:40:28;;;;;;;0.30;0.30;;;15.60;90.00;;;;;;5070927;28;20761;-75
2022/05/12 04:42:56;;;;;;;0.30;0.30;;;15.60;89.10;;;;;;5071286;28;20450;-74
2022/05/12 04:45:24;;;;;;;0.30;0.30;;;15.80;88.60;;;;;;5069213;28;20448;-72
2022/05/12 04:47:51;;;;;;;0.33;0.33;;;15.90;89.00;;;;;;5072875;28;20406;-74
2022/05/12 04:50:21;;;;;;;0.30;0.30;;;16.00;88.90;;;;;;5072952;28;20501;-75
2022/05/12 04:52:48;;;;;;;0.30;0.30;;;16.10;89.60;;;;;;5075606;28;20439;-75
2022/05/12 04:55:16;;;;;;;0.30;0.30;;;16.20;89.60;;;;;;5076819;28;20410;-75
2022/05/12 04:57:46;;;;;;;0.30;0.30;;;16.30;90.80;;;;;;5077705;28;20453;-74
2022/05/12 05:00:17;;;;;;;0.30;0.30;;;16.60;88.10;;;;;;5077113;28;20498;-74
2022/05/12 05:02:43;;;;;;;0.40;0.40;;;16.80;88.80;;;;;;5077045;28;20476;-72
2022/05/12 05:05:11;;;;;;;0.30;0.30;;;16.90;87.20;;;;;;5077290;28;20858;-74
2022/05/12 05:07:38;;;;;;;0.30;0.30;;;17.10;88.50;;;;;;5076933;28;20419;-77
2022/05/12 05:10:07;;;;;;;0.30;0.30;;;17.30;87.70;;;;;;5075281;28;20463;-75
2022/05/12 05:12:33;;;;;;;0.30;0.30;;;17.40;88.40;;;;;;5074405;28;20440;-76
2022/05/12 05:14:59;;;;;;;0.50;0.50;;;17.60;88.10;;;;;;5076821;28;20495;-74
2022/05/12 05:17:28;;;;;;;0.40;0.40;;;17.70;85.60;;;;;;5076984;28;20170;-76
2022/05/12 05:19:55;;;;;;;0.30;0.30;;;17.80;85.40;;;;;;5076945;28;20418;-77
2022/05/12 05:22:22;;;;;;;0.30;0.30;;;17.90;85.10;;;;;;5076461;28;20451;-73
2022/05/12 05:24:48;;;;;;;0.30;0.30;;;18.10;83.50;;;;;;5077365;28;20388;-75
2022/05/12 05:27:14;;;;;;;0.30;0.30;;;18.20;83.20;;;;;;5076556;28;20461;-77
2022/05/12 05:29:40;;;;;;;0.30;0.30;;;18.30;81.70;;;;;;5076965;28;20203;-75
2022/05/12 05:32:08;;;;;;;0.30;0.30;;;18.40;82.70;;;;;;5076551;28;20260;-76
2022/05/12 05:34:34;;;;;;;0.70;0.70;;;18.50;84.00;;;;;;5076808;28;20909;-76
2022/05/12 05:37:00;;;;;;;0.30;0.30;;;18.60;81.20;;;;;;5076945;28;20536;-75
2022/05/12 05:39:27;;;;;;;0.30;0.30;;;18.70;81.70;;;;;;5076983;28;20172;-73
2022/05/12 05:41:57;;;;;;;0.30;0.30;;;18.70;77.80;;;;;;5076201;28;20185;-75
2022/05/12 05:44:23;;;;;;;0.40;0.40;;;18.90;77.30;;;;;;5076604;28;20530;-75
2022/05/12 05:46:49;;;;;;;0.30;0.30;;;19.30;77.40;;;;;;5076274;28;20503;-75
2022/05/12 05:49:16;;;;;;;1.27;1.27;;;19.80;78.80;;;;;;5076301;28;20618;-73
2022/05/12 05:54:31;;;;;;;10.03;1.00;;;20.90;71.20;;;;;;5076255;28;20527;-77
2022/05/12 05:56:57;;;;;;;0.30;0.30;;;21.10;70.60;;;;;;5074459;28;20530;-75
2022/05/12 05:59:23;;;;;;;0.30;0.30;;;21.00;67.90;;;;;;5076296;28;20771;-77
2022/05/12 06:01:49;;;;;;;0.30;0.30;;;20.70;67.70;;;;;;5074517;28;21020;-74
2022/05/12 06:04:17;;;;;;;0.40;0.40;;;20.70;69.80;;;;;;5073790;28;20974;-72
2022/05/12 06:06:46;;;;;;;0.40;0.30;;;20.70;68.10;;;;;;5075280;28;20775;-75
2022/05/12 06:09:12;;;;;;;0.30;0.30;;;20.50;71.80;;;;;;5075170;28;20456;-75
2022/05/12 06:11:39;;;;;;;0.40;0.40;;;20.20;71.20;;;;;;5072696;28;20440;-74
2022/05/12 06:14:04;;;;;;;0.30;0.30;;;20.00;68.70;;;;;;5075754;28;20428;-75
2022/05/12 06:16:31;;;;;;;0.53;0.53;;;19.80;69.90;;;;;;5075821;28;20407;-75
2022/05/12 06:18:57;;;;;;;0.30;0.30;;;19.60;72.70;;;;;;5076048;28;20443;-75
2022/05/12 06:21:22;;;;;;;0.50;0.40;;;19.50;71.70;;;;;;5075495;28;20415;-75
2022/05/12 06:23:48;;;;;;;0.30;0.30;;;19.50;70.20;;;;;;5075529;28;20823;-74
2022/05/12 06:26:14;;;;;;;0.30;0.30;;;19.70;70.00;;;;;;5074396;28;20176;-74
2022/05/12 06:28:46;;;;;;;0.30;0.30;;;19.60;70.40;;;;;;5074970;28;20200;-76
2022/05/12 06:31:15;;;;;;;0.50;0.50;;;19.50;71.20;;;;;;5073532;28;20416;-74
2022/05/12 06:33:41;;;;;;;0.40;0.40;;;19.80;71.60;;;;;;5071319;28;20940;-75
2022/05/12 06:36:08;;;;;;;0.30;0.30;;;20.50;67.10;;;;;;5075075;28;20416;-75
2022/05/12 06:38:34;;;;;;;0.30;0.30;;;21.30;66.70;;;;;;5075018;28;20421;-74
2022/05/12 06:41:01;;;;;;;0.30;0.30;;;21.90;65.40;;;;;;5074981;28;20415;-76
2022/05/12 06:43:29;;;;;;;0.30;0.30;;;22.70;64.00;;;;;;5075073;28;20530;-75
2022/05/12 06:45:56;;;;;;;0.30;0.30;;;23.30;63.00;;;;;;5075126;28;20411;-75
2022/05/12 06:48:23;;;;;;;0.30;0.30;;;23.70;62.60;;;;;;5075139;28;20476;-76
2022/05/12 06:50:49;;;;;;;0.40;0.40;;;23.70;58.60;;;;;;5074865;28;20483;-74
2022/05/12 06:53:15;;;;;;;0.50;0.50;;;23.40;57.50;;;;;;5075012;28;20498;-76
2022/05/12 06:55:41;;;;;;;0.30;0.30;;;23.00;60.00;;;;;;5073802;28;20196;-75
2022/05/12 06:58:08;;;;;;;0.30;0.30;;;22.70;60.50;;;;;;5075201;28;20794;-76
2022/05/12 07:00:34;;;;;;;0.30;0.30;;;23.10;62.50;;;;;;5074920;28;20400;-75
2022/05/12 07:02:59;;;;;;;0.30;0.30;;;23.50;59.10;;;;;;5074795;28;20428;-75
2022/05/12 07:05:26;;;;;;;0.30;0.30;;;23.60;58.30;;;;;;5074670;28;20170;-76
2022/05/12 07:07:53;;;;;;;0.30;0.30;;;24.00;57.60;;;;;;5074747;28;20176;-76
2022/05/12 07:10:21;;;;;;;0.30;0.30;;;24.50;58.00;;;;;;5074561;28;20744;-76
2022/05/12 07:12:47;;;;;;;0.30;0.30;;;24.10;56.60;;;;;;5074820;28;20464;-77
2022/05/12 07:15:14;;;;;;;0.40;0.40;;;24.00;56.20;;;;;;5071315;28;20381;-76
2022/05/12 07:17:43;;;;;;;0.40;0.40;;;24.60;55.20;;;;;;5074319;28;20400;-77
2022/05/12 07:28:28;;;;;;;0.40;0.40;;;28.00;49.50;;;;;;5074410;28;20504;-74
2022/05/12 07:31:03;;;;;;;0.30;0.30;;;28.10;48.50;;;;;;5072773;28;20400;-76
2022/05/12 07:33:40;;;;;;;0.40;0.40;;;27.60;47.70;;;;;;5073473;28;20437;-76
2022/05/12 07:36:13;;;;;;;0.30;0.30;;;27.50;48.70;;;;;;5074135;28;20419;-77
2022/05/12 07:38:39;;;;;;;0.40;0.40;;;27.10;46.90;;;;;;5074164;28;20470;-76
2022/05/12 07:41:09;;;;;;;0.30;0.30;;;27.50;46.50;;;;;;5074119;28;20408;-73
2022/05/12 07:43:35;;;;;;;0.30;0.30;;;29.10;45.10;;;;;;5074195;28;20458;-76
2022/05/12 07:46:01;;;;;;;0.50;0.50;;;30.60;42.80;;;;;;5074454;28;20396;-74
2022/05/12 07:48:26;;;;;;;0.50;0.50;;;31.30;41.70;;;;;;5074322;28;20238;-74
2022/05/12 07:50:52;;;;;;;0.40;0.40;;;31.90;40.60;;;;;;5072646;28;20251;-74
2022/05/12 07:53:18;;;;;;;0.80;0.80;;;32.40;38.80;;;;;;5073934;28;20607;-76
2022/05/12 07:55:44;;;;;;;0.37;0.30;;;32.80;38.50;;;;;;5074108;28;20521;-74
2022/05/12 07:58:10;;;;;;;0.40;0.40;;;33.60;38.50;;;;;;5074179;28;20400;-73
2022/05/12 08:00:36;;;;;;;0.30;0.30;;;33.30;35.20;;;;;;5073943;28;20173;-74
2022/05/12 08:03:03;;;;;;;0.30;0.30;;;32.50;37.00;;;;;;5073981;28;20423;-72
2022/05/12 08:05:29;;;;;;;0.40;0.40;;;31.90;36.80;;;;;;5074381;28;20165;-73
2022/05/12 08:07:55;;;;;;;0.30;0.30;;;31.40;39.20;;;;;;5073768;28;20408;-75
2022/05/12 08:10:21;;;;;;;0.30;0.30;;;30.50;38.80;;;;;;5073681;28;20461;-76
2022/05/12 08:12:48;;;;;;;0.30;0.30;;;30.10;39.70;;;;;;5071329;28;20427;-76
2022/05/12 08:15:14;;;;;;;0.30;0.30;;;29.40;40.30;;;;;;5072055;28;20422;-76
2022/05/12 08:17:39;;;;;;;0.30;0.30;;;29.60;40.80;;;;;;5073730;28;20431;-75
2022/05/12 08:20:07;;;;;;;0.30;0.30;;;30.00;40.40;;;;;;5072105;28;20268;-75
2022/05/12 08:22:34;;;;;;;0.30;0.30;;;29.50;39.60;;;;;;5073568;28;20204;-74
2022/05/12 08:25:00;;;;;;;0.77;0.53;;;29.50;39.90;;;;;;5073429;28;20865;-75
2022/05/12 08:27:26;;;;;;;0.37;0.37;;;28.50;41.10;;;;;;5073277;28;20408;-75
2022/05/12 08:29:52;;;;;;;0.40;0.40;;;28.50;42.00;;;;;;5072250;28;20451;-75
2022/05/12 08:32:19;;;;;;;0.87;0.87;;;29.50;40.40;;;;;;5073387;28;20880;-74
2022/05/12 08:34:44;;;;;;;0.40;0.40;;;30.20;40.80;;;;;;5073547;28;20408;-76
2022/05/12 08:37:11;;;;;;;0.40;0.40;;;31.30;40.40;;;;;;5073348;28;20415;-76
2022/05/12 08:39:37;;;;;;;0.30;0.30;;;31.40;38.00;;;;;;5073523;28;20204;-76
2022/05/12 08:42:15;;;;;;;0.30;0.30;;;31.60;39.30;;;;;;5073309;28;20514;-76
2022/05/12 08:44:41;;;;;;;0.30;0.30;;;31.80;37.10;;;;;;5073420;28;20425;-76
2022/05/12 08:47:12;;;;;;;0.30;0.30;;;31.20;38.30;;;;;;5072917;28;20920;-76
2022/05/12 08:49:47;;;;;;;0.30;0.30;;;31.80;38.70;;;;;;5071183;28;20670;-75
2022/05/12 08:52:48;;;;;;;0.30;0.30;;;31.80;38.40;;;;;;5071550;28;20407;-75
2022/05/12 08:55:28;;;;;;;0.30;0.30;;;33.20;36.40;;;;;;5072625;28;20777;-77
2022/05/12 08:57:55;;;;;;;0.30;0.30;;;32.60;35.50;;;;;;5073227;28;20399;-76
2022/05/12 09:00:22;;;;;;;0.77;0.70;;;32.30;37.70;;;;;;5071653;28;20423;-76
2022/05/12 09:03:35;;;;;;;0.50;0.50;;;31.90;36.20;;;;;;5070914;28;20428;-75
2022/05/12 09:06:09;;;;;;;0.40;0.40;;;31.60;36.40;;;;;;5070489;28;20562;-76
2022/05/12 09:08:53;;;;;;;0.30;0.30;;;31.60;36.80;;;;;;5071090;28;20890;-76
2022/05/12 09:11:27;;;;;;;0.40;0.40;;;32.60;36.80;;;;;;5071076;28;20443;-76
2022/05/12 09:13:53;;;;;;;0.30;0.30;;;33.50;36.50;;;;;;5072825;28;20420;-76
2022/05/12 09:16:23;;;;;;;0.40;0.40;;;32.60;36.70;;;;;;5072918;28;20526;-76
2022/05/12 09:18:51;;;;;;;0.73;0.73;;;32.30;37.70;;;;;;5072932;28;20403;-75
2022/05/12 09:21:29;;;;;;;0.70;0.70;;;33.30;37.00;;;;;;5070510;28;20415;-75
2022/05/12 09:23:57;;;;;;;0.30;0.30;;;34.30;35.20;;;;;;5073239;28;20443;-75
2022/05/12 09:26:42;;;;;;;0.40;0.40;;;34.50;37.30;;;;;;5073171;28;20938;-75
2022/05/12 09:29:17;;;;;;;0.33;0.30;;;35.30;35.40;;;;;;5071233;28;20475;-74
2022/05/12 09:32:14;;;;;;;0.40;0.30;;;35.70;34.40;;;;;;5072774;28;20491;-75
2022/05/12 09:34:46;;;;;;;0.30;0.30;;;33.80;35.20;;;;;;5072219;28;20950;-75
2022/05/12 09:37:12;;;;;;;0.30;0.30;;;32.90;36.90;;;;;;5072993;28;20399;-74
2022/05/12 09:39:41;;;;;;;0.57;0.57;;;33.20;38.10;;;;;;5075762;28;20408;-75
2022/05/12 09:42:16;;;;;;;0.40;0.33;;;33.00;37.30;;;;;;5076184;28;20268;-75
2022/05/12 09:44:53;;;;;;;1.07;1.07;;;32.80;38.30;;;;;;5076444;28;20724;-75
2022/05/12 09:47:19;;;;;;;0.50;0.50;;;33.00;39.30;;;;;;5076437;28;20434;-75
2022/05/12 09:49:46;;;;;;;0.37;0.30;;;32.20;37.00;;;;;;5074731;28;20865;-74
2022/05/12 09:52:37;;;;;;;0.30;0.30;;;31.80;38.80;;;;;;5075876;28;20165;-75
2022/05/12 09:55:21;;;;;;;0.40;0.30;;;31.50;38.00;;;;;;5076109;28;20376;-75
2022/05/12 09:58:25;;;;;;;0.40;0.40;;;31.90;40.70;;;;;;5076183;28;20392;-76
2022/05/12 10:01:17;;;;;;;0.30;0.30;;;32.50;38.80;;;;;;5075813;28;20844;-75
2022/05/12 10:09:32;;;;;;;1.93;1.47;;;31.80;42.80;;;;;;5076296;28;20470;-74
2022/05/12 10:12:23;;;;;;;0.40;0.40;;;31.70;38.40;;;;;;5076288;28;20388;-74
2022/05/12 10:14:59;;;;;;;0.30;0.30;;;31.30;40.00;;;;;;5075884;28;20835;-74
2022/05/12 10:17:34;;;;;;;0.87;0.50;;;31.30;41.60;;;;;;5076046;28;20934;-75
2022/05/12 10:20:20;;;;;;;0.30;0.30;;;31.60;40.90;;;;;;5075558;28;20765;-75
2022/05/12 10:23:04;;;;;;;0.50;0.50;;;31.90;40.10;;;;;;5075609;28;20458;-74
2022/05/12 10:25:55;;;;;;;0.40;0.40;;;31.10;40.60;;;;;;5075865;28;20399;-74
2022/05/12 10:28:37;;;;;;;0.30;0.30;;;31.30;39.20;;;;;;5075805;28;20527;-74
2022/05/12 10:31:18;;;;;;;0.40;0.40;;;31.60;40.60;;;;;;5073272;28;20406;-74
2022/05/12 10:34:11;;;;;;;0.30;0.30;;;31.50;39.70;;;;;;5075566;28;20462;-74
2022/05/12 10:36:46;;;;;;;0.30;0.30;;;31.30;38.90;;;;;;5074782;28;20410;-73
2022/05/12 10:39:26;;;;;;;1.17;1.17;;;31.10;41.40;;;;;;5073847;28;20407;-74
2022/05/12 10:42:06;;;;;;;1.63;1.53;;;31.00;41.60;;;;;;5075110;28;20424;-73
2022/05/12 10:44:46;;;;;;;0.77;0.50;;;31.30;41.60;;;;;;5073528;28;20896;-73
2022/05/12 10:47:37;;;;;;;0.50;0.50;;;31.60;41.30;;;;;;5074766;28;20426;-74
2022/05/12 10:50:23;;;;;;;0.40;0.40;;;31.90;41.30;;;;;;5074557;28;20932;-73
2022/05/12 10:53:03;;;;;;;0.40;0.37;;;31.60;38.80;;;;;;5075048;28;20464;-73
2022/05/12 10:55:36;;;;;;;0.70;0.70;;;31.00;41.40;;;;;;5074948;28;20394;-73
2022/05/12 10:58:08;;;;;;;0.50;0.43;;;29.70;44.10;;;;;;5073789;28;20414;-73
2022/05/12 11:00:55;;;;;;;0.30;0.30;;;29.50;43.40;;;;;;5074811;28;20881;-73
2022/05/12 11:03:29;;;;;;;0.30;0.30;;;29.50;43.10;;;;;;5073051;28;20526;-74
2022/05/12 11:06:03;;;;;;;0.80;0.80;;;29.10;46.20;;;;;;5073175;28;20403;-74
2022/05/12 11:08:37;;;;;;;1.83;1.73;;;29.40;44.60;;;;;;5073180;28;20455;-73
2022/05/12 11:11:12;;;;;;;0.30;0.30;;;29.40;46.20;;;;;;5073339;28;20427;-73
2022/05/12 11:13:59;;;;;;;0.30;0.30;;;29.30;45.10;;;;;;5073527;28;20456;-74
2022/05/12 11:16:30;;;;;;;0.30;0.30;;;29.30;44.80;;;;;;5074661;28;20404;-74
2022/05/12 11:19:08;;;;;;;0.37;0.37;;;28.90;47.10;;;;;;5074720;28;20810;-74
2022/05/12 11:21:49;;;;;;;0.40;0.40;;;28.80;45.00;;;;;;5074372;28;20407;-73
2022/05/12 11:24:27;;;;;;;0.80;0.80;;;28.60;46.70;;;;;;5074250;28;20442;-73
2022/05/12 11:27:08;;;;;;;0.30;0.30;;;28.30;46.10;;;;;;5074557;28;20954;-73
2022/05/12 11:29:51;;;;;;;0.47;0.47;;;27.60;45.80;;;;;;5074364;28;20444;-73
2022/05/12 11:32:43;;;;;;;0.40;0.40;;;26.60;47.60;;;;;;5074078;28;20417;-73
2022/05/12 11:35:15;;;;;;;0.30;0.30;;;26.30;47.70;;;;;;5074447;28;20475;-73
2022/05/12 11:37:41;;;;;;;0.30;0.30;;;26.20;47.60;;;;;;5072780;28;20414;-73
2022/05/12 11:40:09;;;;;;;0.40;0.40;;;26.20;48.40;;;;;;5072596;28;20408;-73
2022/05/12 11:45:48;;;;;;;0.50;0.50;;;26.40;47.50;;;;;;5072704;28;20468;-74
2022/05/12 11:48:26;;;;;;;0.50;0.50;;;26.60;50.30;;;;;;5073879;28;20946;-73
2022/05/12 11:51:21;;;;;;;0.30;0.30;;;26.30;48.20;;;;;;5073890;28;20398;-73
2022/05/12 11:53:47;;;;;;;0.30;0.30;;;26.20;48.70;;;;;;5073881;28;20389;-73
2022/05/12 11:56:13;;;;;;;0.30;0.30;;;26.10;49.70;;;;;;5074021;28;20377;-73
2022/05/12 11:58:42;;;;;;;0.30;0.30;;;25.80;50.40;;;;;;5074025;28;20173;-73
2022/05/12 12:01:14;;;;;;;0.30;0.30;;;25.40;49.80;;;;;;5073196;28;20169;-73
2022/05/12 12:04:03;;;;;;;0.40;0.40;;;25.60;50.40;;;;;;5073856;28;20440;-73
2022/05/12 12:06:40;;;;;;;1.23;1.23;;;26.00;50.00;;;;;;5073831;28;20736;-73
2022/05/12 12:09:27;;;;;;;0.30;0.30;;;25.80;48.60;;;;;;5073700;28;20452;-73
2022/05/12 12:11:54;;;;;;;0.30;0.30;;;26.00;50.00;;;;;;5073507;28;20483;-73
2022/05/12 12:14:50;;;;;;;0.50;0.50;;;26.20;49.00;;;;;;5073812;28;20546;-73
2022/05/12 12:17:25;;;;;;;0.30;0.30;;;25.80;49.20;;;;;;5073670;28;20399;-73
2022/05/12 12:19:57;;;;;;;0.57;0.50;;;26.00;51.60;;;;;;5073433;28;20381;-74
2022/05/12 12:22:44;;;;;;;0.30;0.30;;;26.20;49.20;;;;;;5073119;28;20425;-74
2022/05/12 12:25:09;;;;;;;0.30;0.30;;;26.50;50.80;;;;;;5073535;28;20473;-73
2022/05/12 12:28:04;;;;;;;0.33;0.33;;;26.10;49.10;;;;;;5073533;28;20407;-74
2022/05/12 12:30:30;;;;;;;0.30;0.30;;;26.20;50.50;;;;;;5073151;28;20233;-73
2022/05/12 12:33:09;;;;;;;0.30;0.30;;;26.10;50.60;;;;;;5073414;28;20523;-73
2022/05/12 12:36:06;;;;;;;0.40;0.40;;;26.20;49.90;;;;;;5073432;28;20264;-73
2022/05/12 12:38:44;;;;;;;0.40;0.40;;;26.20;49.40;;;;;;5073757;28;20456;-73
2022/05/12 12:41:12;;;;;;;0.43;0.43;;;26.20;49.10;;;;;;5073144;28;20411;-73
2022/05/12 12:43:46;;;;;;;1.33;0.73;;;26.20;50.50;;;;;;5073135;28;20401;-73
2022/05/12 12:46:15;;;;;;;0.30;0.30;;;26.10;49.90;;;;;;5071997;28;20462;-74
2022/05/12 12:48:49;;;;;;;0.40;0.40;;;26.30;51.10;;;;;;5072900;28;20927;-73
2022/05/12 12:51:31;;;;;;;0.30;0.30;;;26.20;49.50;;;;;;5072968;28;20374;-73
2022/05/12 12:56:42;;;;;;;0.40;0.40;;;26.40;50.60;;;;;;5073168;28;20420;-73
2022/05/12 12:59:17;;;;;;;0.30;0.30;;;25.80;48.90;;;;;;5072811;28;20400;-73
2022/05/12 13:01:59;;;;;;;0.40;0.40;;;25.80;51.40;;;;;;5072496;28;20410;-73
2022/05/12 13:04:32;;;;;;;0.30;0.30;;;25.80;50.50;;;;;;5072912;28;20425;-73
2022/05/12 13:07:04;;;;;;;0.30;0.30;;;25.80;51.00;;;;;;5072998;28;20408;-73
2022/05/12 13:09:37;;;;;;;0.30;0.30;;;25.80;50.40;;;;;;5073001;28;20533;-73
2022/05/12 13:12:20;;;;;;;0.53;0.53;;;25.80;50.20;;;;;;5072809;28;20414;-73
2022/05/12 13:14:50;;;;;;;0.30;0.30;;;25.80;51.00;;;;;;5076369;28;20413;-73
2022/05/12 13:17:27;;;;;;;0.30;0.30;;;25.90;49.20;;;;;;5077013;28;20385;-73
2022/05/12 13:19:56;;;;;;;0.30;0.30;;;26.00;49.50;;;;;;5076892;28;20385;-73
2022/05/12 13:22:32;;;;;;;0.50;0.50;;;26.00;49.50;;;;;;5076209;28;20419;-74
2022/05/12 13:24:58;;;;;;;0.30;0.30;;;26.00;50.70;;;;;;5076581;28;20511;-73
2022/05/12 13:27:35;;;;;;;0.50;0.50;;;25.60;51.10;;;;;;5076622;28;20488;-73
2022/05/12 13:30:01;;;;;;;0.40;0.40;;;25.30;52.10;;;;;;5076398;28;20537;-73
2022/05/12 13:32:43;;;;;;;0.30;0.30;;;25.00;52.50;;;;;;5076564;28;20403;-74